Time;durP1;ratioP1;P1;durP2;ratioP2;P2;SDS_P1;SDS_P2;PMS_P1;PMS_P2;Temp;Humidity;BMP_temperature;BMP_pressure;BME280_temperature;BME280_humidity;BME280_pressure;Samples;Min_cycle;Max_cycle;Signal;HPM_P1;HPM_P2
2023/07/21 00:01:55;;;;;;;6.20;3.33;;;;;;;;;;5014212;28;20069;-63
2023/07/21 00:04:24;;;;;;;7.28;3.40;;;;;;;;;;5015705;28;20025;-63
2023/07/21 00:06:51;;;;;;;7.47;3.40;;;;;;;;;;5014541;28;21035;-63
2023/07/21 00:09:17;;;;;;;6.57;3.33;;;;;;;;;;5014434;28;21762;-63
2023/07/21 00:11:43;;;;;;;7.00;3.67;;;;;;;;;;5014594;28;20403;-63
2023/07/21 00:14:10;;;;;;;5.78;3.10;;;;;;;;;;5012978;28;20736;-63
2023/07/21 00:16:37;;;;;;;7.47;3.17;;;;;;;;;;5013299;28;20029;-63
2023/07/21 00:19:06;;;;;;;6.65;3.80;;;;;;;;;;5013192;28;20041;-63
2023/07/21 00:21:32;;;;;;;6.30;3.17;;;;;;;;;;5012952;28;20038;-63
2023/07/21 00:23:58;;;;;;;5.30;3.13;;;;;;;;;;5014791;28;20044;-63
2023/07/21 00:26:24;;;;;;;6.13;3.25;;;;;;;;;;5015057;28;20053;-63
2023/07/21 00:28:51;;;;;;;6.45;2.58;;;;;;;;;;5013707;28;20093;-63
2023/07/21 00:31:17;;;;;;;5.75;3.30;;;;;;;;;;5014318;28;20021;-63
2023/07/21 00:33:44;;;;;;;5.95;2.55;;;;;;;;;;5015787;28;20115;-63
2023/07/21 00:36:12;;;;;;;6.18;3.17;;;;;;;;;;5012993;28;20401;-63
2023/07/21 00:38:40;;;;;;;5.22;3.00;;;;;;;;;;5015287;28;20751;-63
2023/07/21 00:41:06;;;;;;;7.25;3.38;;;;;;;;;;5013872;28;20097;-63
2023/07/21 00:43:33;;;;;;;6.18;3.38;;;;;;;;;;5015921;28;20025;-63
2023/07/21 00:45:59;;;;;;;6.45;3.08;;;;;;;;;;5015324;28;20909;-63
2023/07/21 00:48:25;;;;;;;6.20;3.35;;;;;;;;;;5014655;28;22360;-63
2023/07/21 00:50:53;;;;;;;9.05;3.45;;;;;;;;;;5012138;28;20033;-63
2023/07/21 00:53:19;;;;;;;5.22;2.78;;;;;;;;;;5013846;28;20108;-63
2023/07/21 00:55:47;;;;;;;3.10;1.40;;;;;;;;;;5011928;28;20040;-63
2023/07/21 00:58:14;;;;;;;2.78;1.20;;;;;;;;;;5015330;28;22020;-63
2023/07/21 01:00:40;;;;;;;2.60;1.35;;;;;;;;;;5014939;28;20049;-63
2023/07/21 01:03:07;;;;;;;6.90;2.00;;;;;;;;;;5014041;28;21368;-63
2023/07/21 01:05:36;;;;;;;4.78;2.47;;;;;;;;;;5013562;28;20055;-63
2023/07/21 01:08:07;;;;;;;7.07;2.30;;;;;;;;;;5014586;28;20021;-63
2023/07/21 01:10:34;;;;;;;11.40;3.17;;;;;;;;;;5013580;28;20825;-63
2023/07/21 01:13:01;;;;;;;6.40;3.08;;;;;;;;;;5014066;28;20981;-63
2023/07/21 01:15:28;;;;;;;4.78;2.53;;;;;;;;;;5014716;28;20037;-63
2023/07/21 01:17:54;;;;;;;3.60;2.10;;;;;;;;;;5014146;28;20591;-63
2023/07/21 01:20:22;;;;;;;5.88;2.17;;;;;;;;;;5013020;28;20130;-64
2023/07/21 01:23:01;;;;;;;3.95;1.88;;;;;;;;;;5014769;28;20037;-63
2023/07/21 01:25:28;;;;;;;3.78;2.10;;;;;;;;;;5014365;28;20151;-63
2023/07/21 01:27:55;;;;;;;5.22;2.75;;;;;;;;;;5013027;28;20049;-63
2023/07/21 01:30:22;;;;;;;7.85;3.13;;;;;;;;;;5013029;28;20033;-63
2023/07/21 01:32:50;;;;;;;6.28;3.10;;;;;;;;;;5013812;28;20422;-64
2023/07/21 01:35:17;;;;;;;6.95;3.17;;;;;;;;;;5013742;28;20025;-63
2023/07/21 01:37:45;;;;;;;5.50;2.95;;;;;;;;;;5014524;28;20112;-63
2023/07/21 01:40:12;;;;;;;7.65;2.75;;;;;;;;;;5013532;28;20071;-63
2023/07/21 01:42:39;;;;;;;4.35;2.33;;;;;;;;;;5013724;28;20504;-63
2023/07/21 01:45:07;;;;;;;4.30;2.42;;;;;;;;;;5013568;28;20373;-63
2023/07/21 01:47:33;;;;;;;5.60;2.47;;;;;;;;;;5015302;28;20041;-63
2023/07/21 01:50:00;;;;;;;5.72;2.95;;;;;;;;;;5013532;28;20029;-63
2023/07/21 01:52:27;;;;;;;5.57;2.33;;;;;;;;;;5014104;28;20075;-63
2023/07/21 01:54:57;;;;;;;6.68;2.78;;;;;;;;;;5014333;28;20240;-63
2023/07/21 01:57:27;;;;;;;5.75;2.63;;;;;;;;;;5014707;28;20030;-63
2023/07/21 01:59:54;;;;;;;7.68;3.15;;;;;;;;;;5014283;28;20074;-63
2023/07/21 02:02:20;;;;;;;8.65;3.40;;;;;;;;;;5013216;28;20044;-63
2023/07/21 02:04:50;;;;;;;7.80;2.88;;;;;;;;;;5014267;28;20041;-63
2023/07/21 02:07:16;;;;;;;4.65;2.53;;;;;;;;;;5016660;28;20052;-63
2023/07/21 02:09:42;;;;;;;8.13;2.80;;;;;;;;;;5014937;28;20025;-63
2023/07/21 02:12:11;;;;;;;5.30;2.63;;;;;;;;;;5016367;28;20041;-63
2023/07/21 02:14:37;;;;;;;8.85;2.80;;;;;;;;;;5016752;28;20044;-63
2023/07/21 02:17:03;;;;;;;6.32;3.15;;;;;;;;;;5016796;28;20033;-63
2023/07/21 02:19:29;;;;;;;5.10;2.75;;;;;;;;;;5016676;28;20045;-63
2023/07/21 02:21:55;;;;;;;4.50;2.20;;;;;;;;;;5017560;28;20033;-63
2023/07/21 02:24:21;;;;;;;3.67;1.20;;;;;;;;;;5015920;28;20029;-63
2023/07/21 02:26:47;;;;;;;6.40;2.17;;;;;;;;;;5015304;28;20400;-63
2023/07/21 02:29:14;;;;;;;4.30;2.03;;;;;;;;;;5017154;28;20049;-63
2023/07/21 02:31:40;;;;;;;6.57;2.60;;;;;;;;;;5016242;28;20030;-63
2023/07/21 02:34:06;;;;;;;6.82;2.92;;;;;;;;;;5014887;28;20032;-63
2023/07/21 02:36:32;;;;;;;7.63;3.40;;;;;;;;;;5016183;28;21155;-63
2023/07/21 02:38:58;;;;;;;6.20;3.03;;;;;;;;;;5017670;28;20255;-63
2023/07/21 02:41:24;;;;;;;4.03;2.38;;;;;;;;;;5017639;28;21250;-63
2023/07/21 02:43:50;;;;;;;4.88;2.63;;;;;;;;;;5016006;28;20647;-63
2023/07/21 02:46:16;;;;;;;7.03;2.97;;;;;;;;;;5015893;28;20925;-63
2023/07/21 02:48:43;;;;;;;6.60;3.58;;;;;;;;;;5015949;28;20048;-63
2023/07/21 02:51:09;;;;;;;5.47;3.42;;;;;;;;;;5016983;28;20381;-63
2023/07/21 02:53:35;;;;;;;8.02;4.40;;;;;;;;;;5015254;28;20025;-63
2023/07/21 02:56:03;;;;;;;6.72;3.45;;;;;;;;;;5016700;28;20033;-63
2023/07/21 02:58:30;;;;;;;6.30;3.42;;;;;;;;;;5015240;28;20906;-63
2023/07/21 03:00:56;;;;;;;6.07;3.28;;;;;;;;;;5016004;28;20465;-63
2023/07/21 03:03:25;;;;;;;6.57;3.55;;;;;;;;;;5016165;28;20033;-63
2023/07/21 03:05:51;;;;;;;4.63;2.10;;;;;;;;;;5016011;28;21229;-63
2023/07/21 03:08:26;;;;;;;3.70;1.67;;;;;;;;;;5031361;28;20937;-63
2023/07/21 03:10:55;;;;;;;2.55;1.25;;;;;;;;;;5014654;28;20412;-63
2023/07/21 03:13:21;;;;;;;2.13;1.08;;;;;;;;;;5013950;28;21058;-63
2023/07/21 03:15:47;;;;;;;1.65;0.70;;;;;;;;;;5014338;28;20043;-63
2023/07/21 03:18:13;;;;;;;2.13;1.33;;;;;;;;;;5013953;28;21030;-63
2023/07/21 03:20:39;;;;;;;2.42;1.15;;;;;;;;;;5013914;28;20447;-63
2023/07/21 03:23:08;;;;;;;2.58;1.20;;;;;;;;;;5015044;28;20033;-63
2023/07/21 03:25:37;;;;;;;2.78;1.35;;;;;;;;;;5016204;28;20029;-63
2023/07/21 03:28:03;;;;;;;3.53;1.50;;;;;;;;;;5016503;28;20049;-63
2023/07/21 03:30:29;;;;;;;3.25;1.40;;;;;;;;;;5016879;28;20029;-62
2023/07/21 03:32:55;;;;;;;2.05;1.20;;;;;;;;;;5015902;28;20025;-63
2023/07/21 03:35:21;;;;;;;3.10;1.40;;;;;;;;;;5017137;28;20926;-63
2023/07/21 03:37:48;;;;;;;2.50;1.30;;;;;;;;;;5016078;28;20033;-63
2023/07/21 03:40:14;;;;;;;4.22;1.73;;;;;;;;;;5015039;28;20047;-63
2023/07/21 03:42:40;;;;;;;4.53;1.80;;;;;;;;;;5016312;28;20029;-63
2023/07/21 03:45:06;;;;;;;3.58;1.85;;;;;;;;;;5016821;28;20044;-63
2023/07/21 03:47:33;;;;;;;2.90;1.40;;;;;;;;;;5016160;28;21425;-63
2023/07/21 03:49:59;;;;;;;3.22;2.00;;;;;;;;;;5015028;28;20033;-63
2023/07/21 03:52:27;;;;;;;2.75;1.13;;;;;;;;;;5015969;28;20126;-63
2023/07/21 03:54:55;;;;;;;3.33;1.42;;;;;;;;;;5016072;28;20025;-63
2023/07/21 03:57:25;;;;;;;3.88;1.90;;;;;;;;;;5016097;28;21775;-63
2023/07/21 03:59:52;;;;;;;6.13;2.67;;;;;;;;;;5017558;28;20072;-63
2023/07/21 04:02:18;;;;;;;6.00;2.97;;;;;;;;;;5014934;28;20053;-63
2023/07/21 04:04:45;;;;;;;4.63;2.13;;;;;;;;;;5014954;28;20033;-63
2023/07/21 04:07:14;;;;;;;3.28;1.70;;;;;;;;;;5012772;28;20415;-63
2023/07/21 04:09:40;;;;;;;4.28;2.00;;;;;;;;;;5014615;28;20067;-63
2023/07/21 04:12:07;;;;;;;5.53;2.65;;;;;;;;;;5014649;28;20865;-62
2023/07/21 04:14:33;;;;;;;8.00;3.72;;;;;;;;;;5015340;28;20034;-63
2023/07/21 04:16:59;;;;;;;7.32;3.67;;;;;;;;;;5014598;28;20033;-63
2023/07/21 04:19:28;;;;;;;5.70;2.97;;;;;;;;;;5014107;28;20754;-63
2023/07/21 04:21:54;;;;;;;5.80;3.35;;;;;;;;;;5015301;28;20037;-63
2023/07/21 04:24:20;;;;;;;10.55;3.60;;;;;;;;;;5014870;28;20052;-63
2023/07/21 04:26:46;;;;;;;6.53;3.30;;;;;;;;;;5013897;28;20092;-63
2023/07/21 04:29:12;;;;;;;7.47;3.60;;;;;;;;;;5014540;28;20381;-63
2023/07/21 04:31:38;;;;;;;6.57;3.15;;;;;;;;;;5015094;28;20063;-63
2023/07/21 04:34:04;;;;;;;7.88;3.45;;;;;;;;;;5015723;28;20037;-63
2023/07/21 04:36:31;;;;;;;6.40;3.10;;;;;;;;;;5013480;28;20064;-63
2023/07/21 04:38:57;;;;;;;7.95;3.50;;;;;;;;;;5013309;28;20069;-63
2023/07/21 04:41:25;;;;;;;6.63;3.17;;;;;;;;;;5014264;28;20048;-63
2023/07/21 04:43:51;;;;;;;6.82;3.72;;;;;;;;;;5014884;28;20029;-63
2023/07/21 04:46:18;;;;;;;6.85;3.60;;;;;;;;;;5013678;28;20036;-63
2023/07/21 04:48:44;;;;;;;6.72;2.97;;;;;;;;;;5012607;28;20554;-63
2023/07/21 04:51:10;;;;;;;8.05;3.45;;;;;;;;;;5014275;28;20026;-63
2023/07/21 04:53:36;;;;;;;9.15;3.45;;;;;;;;;;5014203;28;20108;-63
2023/07/21 04:56:02;;;;;;;6.50;3.22;;;;;;;;;;5014574;28;20136;-63
2023/07/21 04:58:28;;;;;;;6.63;3.05;;;;;;;;;;5013340;28;20067;-63
2023/07/21 05:00:55;;;;;;;8.75;3.47;;;;;;;;;;5013975;28;20048;-63
2023/07/21 05:03:21;;;;;;;7.03;3.05;;;;;;;;;;5014260;28;20033;-63
2023/07/21 05:05:48;;;;;;;9.32;3.47;;;;;;;;;;5012432;28;20044;-63
2023/07/21 05:08:14;;;;;;;6.38;3.00;;;;;;;;;;5014622;28;20025;-63
2023/07/21 05:10:40;;;;;;;11.05;3.67;;;;;;;;;;5014082;28;20025;-63
2023/07/21 05:13:07;;;;;;;8.75;2.92;;;;;;;;;;5013743;28;20072;-63
2023/07/21 05:15:35;;;;;;;6.32;2.75;;;;;;;;;;5014049;28;20034;-63
2023/07/21 05:18:01;;;;;;;5.70;2.75;;;;;;;;;;5013614;28;20029;-63
2023/07/21 05:20:27;;;;;;;5.50;2.47;;;;;;;;;;5013776;28;20369;-63
2023/07/21 05:22:53;;;;;;;4.38;2.75;;;;;;;;;;5013268;28;21126;-63
2023/07/21 05:25:19;;;;;;;5.57;2.40;;;;;;;;;;5014447;28;21863;-63
2023/07/21 05:27:48;;;;;;;6.10;2.55;;;;;;;;;;5014460;28;20148;-63
2023/07/21 05:30:15;;;;;;;4.53;2.47;;;;;;;;;;5015333;28;20171;-63
2023/07/21 05:32:41;;;;;;;5.47;2.55;;;;;;;;;;5013461;28;20083;-63
2023/07/21 05:35:10;;;;;;;6.55;2.80;;;;;;;;;;5012187;28;20025;-63
2023/07/21 05:37:36;;;;;;;6.30;3.17;;;;;;;;;;5013593;28;20041;-63
2023/07/21 05:40:03;;;;;;;7.32;3.05;;;;;;;;;;5014788;28;20041;-63
2023/07/21 05:42:30;;;;;;;5.88;3.00;;;;;;;;;;5017538;28;20067;-63
2023/07/21 05:44:56;;;;;;;7.80;3.60;;;;;;;;;;5017312;28;21773;-63
2023/07/21 05:47:22;;;;;;;6.03;2.95;;;;;;;;;;5017283;28;21360;-63
2023/07/21 05:49:55;;;;;;;6.50;2.80;;;;;;;;;;5018444;28;20128;-63
2023/07/21 05:52:23;;;;;;;5.53;2.88;;;;;;;;;;5016131;28;20043;-63
2023/07/21 05:54:49;;;;;;;7.03;2.92;;;;;;;;;;5018642;28;20110;-63
2023/07/21 05:57:15;;;;;;;6.88;2.90;;;;;;;;;;5018122;28;20033;-63
2023/07/21 05:59:43;;;;;;;6.05;2.78;;;;;;;;;;5016666;28;20040;-63
2023/07/21 06:02:09;;;;;;;6.78;2.60;;;;;;;;;;5016601;28;21102;-63
2023/07/21 06:04:35;;;;;;;6.60;2.60;;;;;;;;;;5016953;28;20041;-63
2023/07/21 06:07:01;;;;;;;6.38;2.22;;;;;;;;;;5016460;28;20546;-63
2023/07/21 06:09:27;;;;;;;6.05;2.60;;;;;;;;;;5016726;28;20156;-63
2023/07/21 06:11:53;;;;;;;4.85;2.00;;;;;;;;;;5016538;28;20029;-64
2023/07/21 06:14:19;;;;;;;5.65;2.30;;;;;;;;;;5016860;28;20040;-64
2023/07/21 06:16:45;;;;;;;6.95;2.33;;;;;;;;;;5016099;28;20044;-64
2023/07/21 06:19:11;;;;;;;5.18;2.58;;;;;;;;;;5016529;28;20404;-63
2023/07/21 06:21:37;;;;;;;7.80;2.97;;;;;;;;;;5017971;28;20129;-64
2023/07/21 06:24:03;;;;;;;6.45;2.58;;;;;;;;;;5015671;28;20075;-64
2023/07/21 06:26:30;;;;;;;5.95;3.08;;;;;;;;;;5017607;28;20637;-64
2023/07/21 06:28:56;;;;;;;5.20;2.40;;;;;;;;;;5016429;28;20077;-64
2023/07/21 06:31:23;;;;;;;6.40;2.60;;;;;;;;;;5016642;28;20064;-64
2023/07/21 06:33:50;;;;;;;7.68;3.00;;;;;;;;;;5015919;28;20561;-64
2023/07/21 06:36:17;;;;;;;10.27;2.47;;;;;;;;;;5016772;28;20128;-63
2023/07/21 06:38:43;;;;;;;6.63;2.40;;;;;;;;;;5017340;28;20044;-64
2023/07/21 06:41:10;;;;;;;4.28;1.85;;;;;;;;;;5017152;28;20037;-64
2023/07/21 06:43:36;;;;;;;4.63;1.90;;;;;;;;;;5016680;28;20061;-64
2023/07/21 06:46:03;;;;;;;4.50;1.50;;;;;;;;;;5016955;28;20142;-64
2023/07/21 06:48:29;;;;;;;2.83;1.35;;;;;;;;;;5016582;28;20416;-64
2023/07/21 06:50:56;;;;;;;5.50;2.13;;;;;;;;;;5016931;28;20436;-64
2023/07/21 06:53:22;;;;;;;6.13;2.00;;;;;;;;;;5016491;28;20068;-64
2023/07/21 06:55:52;;;;;;;3.85;1.60;;;;;;;;;;5016814;28;20043;-64
2023/07/21 06:58:18;;;;;;;5.95;1.48;;;;;;;;;;5016527;28;20040;-64
2023/07/21 07:00:45;;;;;;;4.07;1.30;;;;;;;;;;5014712;28;20037;-64
2023/07/21 07:03:11;;;;;;;2.88;1.10;;;;;;;;;;5013369;28;20033;-64
2023/07/21 07:05:39;;;;;;;2.92;1.10;;;;;;;;;;5012513;28;20033;-63
2023/07/21 07:08:05;;;;;;;2.67;1.30;;;;;;;;;;5013686;28;20076;-63
2023/07/21 07:10:32;;;;;;;5.00;1.67;;;;;;;;;;5005172;28;20029;-64
2023/07/21 07:12:58;;;;;;;6.53;1.63;;;;;;;;;;5014480;28;20060;-64
2023/07/21 07:15:24;;;;;;;7.38;2.00;;;;;;;;;;5014498;28;20036;-64
2023/07/21 07:17:50;;;;;;;3.78;1.92;;;;;;;;;;5015447;28;20038;-64
2023/07/21 07:20:16;;;;;;;3.60;1.27;;;;;;;;;;5015540;28;20036;-64
2023/07/21 07:22:42;;;;;;;4.53;1.77;;;;;;;;;;5013801;28;20493;-64
2023/07/21 07:25:09;;;;;;;2.97;1.55;;;;;;;;;;5016298;28;20037;-64
2023/07/21 07:27:35;;;;;;;5.10;1.50;;;;;;;;;;5014944;28;20691;-64
2023/07/21 07:30:01;;;;;;;4.45;1.40;;;;;;;;;;5016030;28;20032;-64
2023/07/21 07:32:29;;;;;;;3.97;1.50;;;;;;;;;;5015169;28;20033;-64
2023/07/21 07:34:58;;;;;;;2.55;1.10;;;;;;;;;;5014230;28;20082;-64
2023/07/21 07:37:25;;;;;;;3.15;1.00;;;;;;;;;;5016253;28;20033;-64
2023/07/21 07:39:52;;;;;;;2.65;1.10;;;;;;;;;;5014182;28;20144;-64
2023/07/21 07:42:18;;;;;;;2.83;1.00;;;;;;;;;;5015423;28;20068;-64
2023/07/21 07:44:44;;;;;;;2.75;1.08;;;;;;;;;;5015756;28;20155;-64
2023/07/21 07:47:10;;;;;;;2.05;0.90;;;;;;;;;;5015430;28;20152;-63
2023/07/21 07:49:39;;;;;;;2.75;1.10;;;;;;;;;;5015190;28;20034;-63
2023/07/21 07:52:08;;;;;;;5.05;1.23;;;;;;;;;;5012874;28;20089;-63
2023/07/21 07:54:35;;;;;;;5.53;1.42;;;;;;;;;;5015510;28;21452;-64
2023/07/21 07:57:01;;;;;;;2.97;1.38;;;;;;;;;;5014567;28;20041;-64
2023/07/21 07:59:27;;;;;;;3.33;1.23;;;;;;;;;;5012824;28;20512;-64
2023/07/21 08:01:53;;;;;;;3.75;1.52;;;;;;;;;;5013205;28;20053;-64
2023/07/21 08:04:19;;;;;;;2.60;1.48;;;;;;;;;;5013223;28;20044;-64
2023/07/21 08:06:45;;;;;;;1.92;1.00;;;;;;;;;;4996686;28;20029;-64
2023/07/21 08:09:13;;;;;;;2.10;1.10;;;;;;;;;;5013748;28;20060;-64
2023/07/21 08:11:39;;;;;;;4.43;1.10;;;;;;;;;;5016258;28;20138;-63
2023/07/21 08:14:05;;;;;;;6.05;1.10;;;;;;;;;;5016151;28;20033;-64
2023/07/21 08:16:31;;;;;;;2.88;1.30;;;;;;;;;;5015590;28;20037;-64
2023/07/21 08:18:57;;;;;;;2.63;1.20;;;;;;;;;;5017174;28;20666;-64
2023/07/21 08:21:24;;;;;;;4.75;1.40;;;;;;;;;;5015290;28;20068;-63
2023/07/21 08:23:51;;;;;;;3.60;1.35;;;;;;;;;;5015817;28;20061;-64
2023/07/21 08:26:20;;;;;;;2.05;1.00;;;;;;;;;;5015352;28;20144;-64
2023/07/21 08:28:46;;;;;;;2.38;1.05;;;;;;;;;;5016302;28;20042;-64
2023/07/21 08:31:12;;;;;;;2.67;1.17;;;;;;;;;;5016127;28;20044;-64
2023/07/21 08:33:38;;;;;;;2.95;1.10;;;;;;;;;;5015833;28;20038;-64
2023/07/21 08:36:05;;;;;;;3.03;1.20;;;;;;;;;;5016149;28;20115;-64
2023/07/21 08:38:33;;;;;;;2.90;1.20;;;;;;;;;;5015721;28;20029;-64
2023/07/21 08:41:03;;;;;;;2.97;1.10;;;;;;;;;;5016487;28;20036;-64
2023/07/21 08:43:29;;;;;;;3.20;1.10;;;;;;;;;;5015230;28;20067;-64
2023/07/21 08:45:58;;;;;;;2.78;0.90;;;;;;;;;;5015324;28;20049;-63
2023/07/21 08:48:24;;;;;;;2.28;1.00;;;;;;;;;;5014202;28;20037;-63
2023/07/21 08:50:53;;;;;;;3.38;1.50;;;;;;;;;;5016306;28;20032;-64
2023/07/21 08:53:19;;;;;;;2.83;1.13;;;;;;;;;;5014754;28;20028;-63
2023/07/21 08:55:45;;;;;;;3.33;1.00;;;;;;;;;;5015738;28;20396;-64
2023/07/21 08:58:11;;;;;;;3.00;1.42;;;;;;;;;;5013010;28;20037;-64
2023/07/21 09:00:38;;;;;;;3.30;1.23;;;;;;;;;;5021504;28;20094;-64
2023/07/21 09:03:04;;;;;;;2.78;1.30;;;;;;;;;;5024319;28;20556;-64
2023/07/21 09:05:30;;;;;;;3.97;1.52;;;;;;;;;;5020881;28;20025;-64
2023/07/21 09:07:56;;;;;;;3.78;1.50;;;;;;;;;;5022059;28;20033;-65
2023/07/21 09:10:33;;;;;;;3.22;1.20;;;;;;;;;;5017418;28;20033;-64
2023/07/21 09:13:00;;;;;;;3.25;1.17;;;;;;;;;;5015522;28;20562;-65
2023/07/21 09:15:26;;;;;;;4.20;1.67;;;;;;;;;;5014582;28;20166;-64
2023/07/21 09:17:52;;;;;;;2.92;1.42;;;;;;;;;;5018921;28;20036;-64
2023/07/21 09:20:19;;;;;;;3.28;1.30;;;;;;;;;;5018970;28;20033;-64
2023/07/21 09:22:48;;;;;;;6.00;1.70;;;;;;;;;;5018411;28;20037;-64
2023/07/21 09:25:21;;;;;;;2.75;1.40;;;;;;;;;;5019174;28;20745;-64
2023/07/21 09:27:57;;;;;;;4.10;1.25;;;;;;;;;;5018370;28;20057;-64
2023/07/21 09:30:24;;;;;;;6.28;1.70;;;;;;;;;;5020425;28;20497;-64
2023/07/21 09:32:54;;;;;;;3.33;1.40;;;;;;;;;;5018326;28;20040;-63
2023/07/21 09:35:20;;;;;;;4.63;1.60;;;;;;;;;;5017690;28;20117;-64
2023/07/21 09:37:50;;;;;;;3.97;1.35;;;;;;;;;;5019726;28;20041;-64
2023/07/21 09:40:17;;;;;;;2.88;1.20;;;;;;;;;;5019510;28;20064;-64
2023/07/21 09:42:43;;;;;;;5.05;1.40;;;;;;;;;;5019159;28;20481;-63
2023/07/21 09:45:10;;;;;;;2.85;1.23;;;;;;;;;;5020564;28;21621;-64
2023/07/21 09:47:38;;;;;;;2.15;0.80;;;;;;;;;;5019225;28;20037;-64
2023/07/21 09:50:05;;;;;;;3.45;0.93;;;;;;;;;;5017478;28;22223;-64
2023/07/21 09:52:37;;;;;;;2.90;1.02;;;;;;;;;;5018065;28;20061;-64
2023/07/21 09:55:10;;;;;;;2.70;0.90;;;;;;;;;;5018430;28;20071;-64
2023/07/21 09:57:40;;;;;;;5.53;1.30;;;;;;;;;;5017783;28;20036;-64
2023/07/21 10:00:14;;;;;;;4.38;1.15;;;;;;;;;;5018337;28;20099;-63
2023/07/21 10:02:52;;;;;;;2.65;1.08;;;;;;;;;;5016156;28;20092;-64
2023/07/21 10:05:18;;;;;;;2.10;1.02;;;;;;;;;;5017179;28;20044;-64
2023/07/21 10:07:46;;;;;;;3.55;0.95;;;;;;;;;;5017161;28;20120;-64
2023/07/21 10:10:12;;;;;;;2.70;1.00;;;;;;;;;;5017603;28;20029;-64
2023/07/21 10:12:49;;;;;;;2.90;0.93;;;;;;;;;;5019012;28;20033;-64
2023/07/21 10:15:19;;;;;;;2.55;1.00;;;;;;;;;;5017570;28;20030;-64
2023/07/21 10:17:56;;;;;;;3.25;1.25;;;;;;;;;;5018953;28;20143;-64
2023/07/21 10:20:36;;;;;;;1.63;0.90;;;;;;;;;;5018223;28;20041;-64
2023/07/21 10:23:02;;;;;;;3.25;1.40;;;;;;;;;;5017550;28;20044;-64
2023/07/21 10:25:28;;;;;;;3.55;1.33;;;;;;;;;;5018186;28;20041;-64
2023/07/21 10:28:07;;;;;;;3.03;1.17;;;;;;;;;;5017910;28;20099;-64
2023/07/21 10:30:33;;;;;;;3.63;1.40;;;;;;;;;;5019159;28;20040;-64
2023/07/21 10:33:11;;;;;;;1.83;0.98;;;;;;;;;;5019239;28;20040;-64
2023/07/21 10:35:38;;;;;;;3.30;1.30;;;;;;;;;;5019730;28;20753;-64
2023/07/21 10:38:24;;;;;;;3.58;1.42;;;;;;;;;;5018319;28;20033;-64
2023/07/21 10:40:50;;;;;;;2.83;1.25;;;;;;;;;;5019440;28;20034;-64
2023/07/21 10:43:16;;;;;;;3.47;1.23;;;;;;;;;;5019157;28;20033;-64
2023/07/21 10:45:49;;;;;;;2.78;1.33;;;;;;;;;;5019517;28;20030;-64
2023/07/21 10:48:16;;;;;;;1.88;1.10;;;;;;;;;;5019133;28;21109;-64
2023/07/21 10:50:48;;;;;;;5.47;1.40;;;;;;;;;;5023251;28;20147;-64
2023/07/21 10:53:15;;;;;;;3.45;1.38;;;;;;;;;;5017686;28;20029;-64
2023/07/21 10:55:41;;;;;;;2.00;1.13;;;;;;;;;;5017451;28;20040;-64
2023/07/21 10:58:07;;;;;;;3.05;1.25;;;;;;;;;;5014381;28;20022;-64
2023/07/21 11:00:43;;;;;;;3.67;1.40;;;;;;;;;;5016125;28;20047;-64
2023/07/21 11:03:09;;;;;;;3.13;1.20;;;;;;;;;;5016208;28;20037;-64
2023/07/21 11:05:36;;;;;;;4.00;1.58;;;;;;;;;;5015499;28;20049;-64
2023/07/21 11:08:02;;;;;;;2.92;1.52;;;;;;;;;;5015977;28;20087;-64
2023/07/21 11:10:32;;;;;;;2.88;1.20;;;;;;;;;;5016807;28;20042;-63
2023/07/21 11:12:59;;;;;;;3.28;1.58;;;;;;;;;;5018145;28;20069;-64
2023/07/21 11:15:25;;;;;;;3.67;1.70;;;;;;;;;;5017691;28;20029;-64
2023/07/21 11:18:00;;;;;;;2.72;1.33;;;;;;;;;;5015701;28;20713;-64
2023/07/21 11:20:26;;;;;;;4.13;1.63;;;;;;;;;;5016913;28;20145;-64
2023/07/21 11:22:52;;;;;;;3.10;1.73;;;;;;;;;;5018169;28;20041;-64
2023/07/21 11:25:18;;;;;;;4.78;2.17;;;;;;;;;;5017056;28;20037;-64
2023/07/21 11:27:45;;;;;;;3.40;1.70;;;;;;;;;;5017564;28;20040;-64
2023/07/21 11:30:17;;;;;;;3.70;1.60;;;;;;;;;;5019388;28;20037;-64
2023/07/21 11:32:43;;;;;;;3.88;1.77;;;;;;;;;;5023354;28;20104;-64
2023/07/21 11:35:09;;;;;;;3.28;1.70;;;;;;;;;;5023111;28;20033;-64
2023/07/21 11:37:45;;;;;;;3.25;1.70;;;;;;;;;;5023236;28;20106;-64
2023/07/21 11:40:29;;;;;;;4.65;1.60;;;;;;;;;;5023338;28;20033;-64
2023/07/21 11:42:58;;;;;;;3.50;1.70;;;;;;;;;;5022443;28;20030;-64
2023/07/21 11:45:35;;;;;;;4.00;1.55;;;;;;;;;;5021486;28;20207;-64
2023/07/21 11:48:15;;;;;;;2.33;1.30;;;;;;;;;;5018565;28;20116;-64
2023/07/21 11:50:51;;;;;;;4.40;1.52;;;;;;;;;;5019297;28;20135;-63
2023/07/21 11:53:22;;;;;;;3.67;1.67;;;;;;;;;;5019636;28;20017;-64
2023/07/21 11:55:48;;;;;;;3.83;1.52;;;;;;;;;;5020207;28;20033;-64
2023/07/21 11:58:14;;;;;;;3.28;1.67;;;;;;;;;;5019963;28;20076;-64
2023/07/21 12:00:43;;;;;;;4.07;1.80;;;;;;;;;;5021441;28;20029;-64
2023/07/21 12:03:10;;;;;;;3.97;1.80;;;;;;;;;;5020233;28;20048;-64
2023/07/21 12:05:36;;;;;;;5.88;2.35;;;;;;;;;;5021314;28;20784;-64
2023/07/21 12:08:03;;;;;;;5.15;2.30;;;;;;;;;;5022200;28;20033;-64
2023/07/21 12:10:29;;;;;;;4.50;2.10;;;;;;;;;;5021495;28;20029;-64
2023/07/21 12:12:56;;;;;;;6.45;2.45;;;;;;;;;;5020630;28;20404;-64
2023/07/21 12:15:22;;;;;;;8.20;2.72;;;;;;;;;;5020187;28;20036;-63
2023/07/21 12:17:49;;;;;;;6.75;2.70;;;;;;;;;;5020922;28;20032;-63
2023/07/21 12:20:17;;;;;;;8.20;3.22;;;;;;;;;;5022422;28;20044;-63
2023/07/21 12:22:43;;;;;;;7.00;2.70;;;;;;;;;;5022667;28;20033;-63
2023/07/21 12:25:09;;;;;;;7.10;3.25;;;;;;;;;;5016705;28;20026;-64
2023/07/21 12:27:37;;;;;;;6.25;3.08;;;;;;;;;;5015365;28;20192;-63
2023/07/21 12:30:07;;;;;;;6.57;2.67;;;;;;;;;;5015624;28;20794;-63
2023/07/21 12:32:34;;;;;;;4.70;2.45;;;;;;;;;;5015394;28;20033;-64
2023/07/21 12:35:00;;;;;;;5.05;2.28;;;;;;;;;;5012411;28;20041;-63
2023/07/21 12:37:26;;;;;;;6.18;2.35;;;;;;;;;;5015432;28;20041;-63
2023/07/21 12:39:52;;;;;;;5.13;2.30;;;;;;;;;;5013904;28;21778;-63
2023/07/21 12:42:18;;;;;;;6.95;3.42;;;;;;;;;;5014848;28;20044;-63
2023/07/21 12:44:44;;;;;;;7.88;2.88;;;;;;;;;;5014043;28;20041;-63
2023/07/21 12:47:11;;;;;;;7.35;2.88;;;;;;;;;;5014164;28;20101;-63
2023/07/21 12:49:37;;;;;;;8.90;3.03;;;;;;;;;;5017339;28;20036;-63
2023/07/21 12:52:03;;;;;;;8.50;2.70;;;;;;;;;;5014579;28;20024;-64
2023/07/21 12:54:32;;;;;;;12.63;3.25;;;;;;;;;;5014212;28;20140;-64
2023/07/21 12:56:59;;;;;;;5.72;2.60;;;;;;;;;;5013100;28;20029;-65
2023/07/21 12:59:25;;;;;;;5.68;2.53;;;;;;;;;;5007149;28;20081;-65
2023/07/21 13:01:51;;;;;;;4.90;2.33;;;;;;;;;;5007445;28;20788;-65
2023/07/21 13:04:17;;;;;;;7.63;2.95;;;;;;;;;;5007087;28;20051;-65
2023/07/21 13:06:43;;;;;;;6.25;2.72;;;;;;;;;;5006849;28;20075;-65
2023/07/21 13:09:10;;;;;;;7.38;2.78;;;;;;;;;;5007642;28;20030;-65
2023/07/21 13:11:36;;;;;;;6.53;2.63;;;;;;;;;;5007782;28;20109;-65
2023/07/21 13:14:02;;;;;;;6.78;2.90;;;;;;;;;;5005819;28;20049;-65
2023/07/21 13:16:29;;;;;;;6.50;3.00;;;;;;;;;;5006675;28;20087;-65
2023/07/21 13:18:55;;;;;;;6.75;2.40;;;;;;;;;;5007577;28;20293;-65
2023/07/21 13:21:21;;;;;;;4.75;2.38;;;;;;;;;;5007969;28;20048;-65
2023/07/21 13:23:47;;;;;;;6.43;2.30;;;;;;;;;;5008943;28;20492;-65
2023/07/21 13:26:13;;;;;;;4.90;1.85;;;;;;;;;;5007192;28;20483;-65
2023/07/21 13:28:39;;;;;;;4.85;2.03;;;;;;;;;;5007654;28;20425;-65
2023/07/21 13:31:05;;;;;;;3.53;1.67;;;;;;;;;;5008528;28;20044;-65
2023/07/21 13:33:31;;;;;;;4.32;1.88;;;;;;;;;;5007921;28;20083;-64
2023/07/21 13:35:57;;;;;;;3.58;1.98;;;;;;;;;;5008645;28;20140;-65
2023/07/21 13:38:25;;;;;;;4.70;2.00;;;;;;;;;;5007543;28;20040;-65
2023/07/21 13:40:51;;;;;;;4.50;1.92;;;;;;;;;;5006955;28;20036;-64
2023/07/21 13:43:17;;;;;;;5.85;2.33;;;;;;;;;;5008239;28;20030;-64
2023/07/21 13:45:43;;;;;;;5.88;2.42;;;;;;;;;;5007817;28;20702;-64
2023/07/21 13:48:09;;;;;;;4.15;1.95;;;;;;;;;;5008289;28;20045;-64
2023/07/21 13:50:35;;;;;;;3.53;1.67;;;;;;;;;;5008131;28;20058;-64
2023/07/21 13:53:01;;;;;;;6.03;1.98;;;;;;;;;;5007977;28;20599;-65
2023/07/21 13:55:27;;;;;;;4.35;1.80;;;;;;;;;;5006033;28;20041;-64
2023/07/21 13:57:54;;;;;;;4.00;2.05;;;;;;;;;;5003168;28;20562;-64
2023/07/21 14:00:21;;;;;;;5.07;2.00;;;;;;;;;;5010568;28;20060;-64
2023/07/21 14:02:48;;;;;;;3.97;2.03;;;;;;;;;;5015019;28;20087;-64
2023/07/21 14:05:16;;;;;;;4.55;2.40;;;;;;;;;;5011147;28;20033;-64
2023/07/21 14:07:44;;;;;;;6.70;2.15;;;;;;;;;;5011470;28;20151;-63
2023/07/21 14:10:11;;;;;;;5.10;2.63;;;;;;;;;;5010718;28;20071;-64
2023/07/21 14:12:37;;;;;;;5.50;1.90;;;;;;;;;;5010106;28;20029;-63
2023/07/21 14:15:03;;;;;;;5.68;2.28;;;;;;;;;;5007971;28;20034;-64
2023/07/21 14:17:30;;;;;;;4.18;2.22;;;;;;;;;;5009799;28;20654;-64
2023/07/21 14:19:56;;;;;;;5.05;2.40;;;;;;;;;;5009265;28;20045;-64
2023/07/21 14:22:22;;;;;;;5.05;2.22;;;;;;;;;;5009165;28;20037;-64
2023/07/21 14:24:48;;;;;;;4.32;2.80;;;;;;;;;;5010361;28;20026;-64
2023/07/21 14:27:14;;;;;;;4.55;2.75;;;;;;;;;;5008856;28;20157;-64
2023/07/21 14:29:40;;;;;;;4.65;2.33;;;;;;;;;;5008560;28;20216;-64
2023/07/21 14:32:06;;;;;;;4.90;2.83;;;;;;;;;;5009318;28;20041;-64
2023/07/21 14:34:32;;;;;;;5.28;2.95;;;;;;;;;;5009138;28;20057;-64
2023/07/21 14:36:58;;;;;;;5.50;3.15;;;;;;;;;;5009608;28;20048;-64
2023/07/21 14:39:25;;;;;;;5.93;3.40;;;;;;;;;;5008181;28;20029;-64
2023/07/21 14:41:51;;;;;;;6.03;3.25;;;;;;;;;;5008872;28;20124;-64
2023/07/21 14:44:17;;;;;;;7.90;3.80;;;;;;;;;;5009356;28;20069;-64